createdAt,value
2023-04-16T00:01:57.600Z,7.93
2023-04-16T00:04:47.562Z,7.57
2023-04-16T00:07:36.047Z,8.53
2023-04-16T00:10:24.441Z,7.93
2023-04-16T00:13:12.925Z,8.07
2023-04-16T00:16:01.732Z,7.47
2023-04-16T00:18:50.277Z,7.37
2023-04-16T00:21:40.514Z,8.17
2023-04-16T00:24:28.915Z,7.17
2023-04-16T00:27:17.362Z,7.93
2023-04-16T00:30:07.693Z,7.93
2023-04-16T00:32:56.296Z,9.03
2023-04-16T00:35:47.182Z,8.10
2023-04-16T00:38:37.344Z,9.00
2023-04-16T00:41:26.217Z,7.60
2023-04-16T00:44:14.861Z,7.53
2023-04-16T00:47:05.028Z,8.27
2023-04-16T00:49:53.497Z,7.83
2023-04-16T00:52:42.050Z,8.00
2023-04-16T00:55:32.757Z,9.17
2023-04-16T00:58:22.002Z,7.40
2023-04-16T01:01:10.660Z,7.03
2023-04-16T01:03:59.215Z,7.97
2023-04-16T01:06:48.987Z,8.17
2023-04-16T01:09:37.659Z,8.40
2023-04-16T01:12:27.551Z,7.77
2023-04-16T01:15:16.172Z,8.10
2023-04-16T01:18:05.034Z,8.10
2023-04-16T01:20:54.990Z,8.15
2023-04-16T01:23:43.375Z,7.93
2023-04-16T01:26:32.036Z,8.15
2023-04-16T01:29:20.688Z,10.60
2023-04-16T01:32:10.901Z,8.00
2023-04-16T01:35:02.394Z,9.47
2023-04-16T01:37:53.246Z,8.32
2023-04-16T01:40:41.706Z,8.77
2023-04-16T01:43:30.210Z,9.53
2023-04-16T01:46:24.699Z,9.13
2023-04-16T01:49:13.216Z,9.60
2023-04-16T01:52:01.633Z,8.73
2023-04-16T01:54:51.532Z,9.07
2023-04-16T01:57:40.159Z,7.57
2023-04-16T02:00:28.755Z,9.30
2023-04-16T02:03:18.699Z,10.93
2023-04-16T02:06:07.573Z,9.27
2023-04-16T02:08:57.441Z,10.57
2023-04-16T02:11:48.458Z,10.07
2023-04-16T02:14:36.877Z,10.60
2023-04-16T02:17:25.756Z,9.38
2023-04-16T02:20:25.785Z,9.63
2023-04-16T02:23:18.160Z,10.23
2023-04-16T02:26:07.148Z,8.98
2023-04-16T02:28:57.148Z,9.00
2023-04-16T02:31:50.424Z,9.88
2023-04-16T02:34:40.303Z,9.80
2023-04-16T02:37:28.960Z,8.63
2023-04-16T02:40:18.008Z,10.25
2023-04-16T02:43:06.606Z,9.13
2023-04-16T02:46:02.684Z,9.95
2023-04-16T02:48:51.021Z,9.33
2023-04-16T02:51:39.640Z,10.63
2023-04-16T02:54:28.012Z,9.30
2023-04-16T02:57:16.438Z,11.32
2023-04-16T03:00:05.945Z,10.68
2023-04-16T03:02:55.888Z,9.33
2023-04-16T03:05:44.601Z,10.37
2023-04-16T03:09:29.422Z,9.68
2023-04-16T03:12:18.265Z,10.43
2023-04-16T03:15:07.968Z,11.57
2023-04-16T03:17:58.421Z,10.50
2023-04-16T03:20:46.804Z,12.30
2023-04-16T03:23:35.716Z,10.90
2023-04-16T03:26:24.217Z,11.40
2023-04-16T03:29:12.727Z,11.33
2023-04-16T03:32:01.257Z,9.85
2023-04-16T03:34:51.175Z,11.13
2023-04-16T03:37:39.750Z,11.97
2023-04-16T03:40:28.213Z,12.33
2023-04-16T03:43:16.939Z,11.10
2023-04-16T03:46:05.475Z,12.30
2023-04-16T03:48:54.029Z,12.70
2023-04-16T03:51:52.497Z,11.50
2023-04-16T03:54:41.238Z,11.67
2023-04-16T03:57:41.436Z,11.63
2023-04-16T04:00:36.478Z,11.80
2023-04-16T04:03:32.085Z,11.98
2023-04-16T04:06:20.842Z,12.57
2023-04-16T04:09:11.680Z,14.07
2023-04-16T04:12:00.159Z,12.63
2023-04-16T04:14:49.167Z,12.13
2023-04-16T04:17:37.646Z,12.65
2023-04-16T04:20:26.360Z,12.48
2023-04-16T04:23:15.394Z,12.93
2023-04-16T04:26:07.330Z,12.57
2023-04-16T04:28:55.791Z,12.15
2023-04-16T04:31:44.429Z,12.47
2023-04-16T04:34:32.972Z,13.63
2023-04-16T04:37:21.559Z,12.50
2023-04-16T04:40:11.421Z,14.20
2023-04-16T04:43:01.586Z,13.20
2023-04-16T04:45:50.374Z,12.07
2023-04-16T04:48:41.297Z,14.95
2023-04-16T04:51:30.232Z,14.73
2023-04-16T04:54:18.744Z,13.40
2023-04-16T04:57:07.209Z,14.27
2023-04-16T04:59:57.234Z,14.48
2023-04-16T05:02:45.892Z,12.60
2023-04-16T05:05:34.419Z,12.32
2023-04-16T05:08:22.826Z,13.07
2023-04-16T05:11:11.389Z,13.02
2023-04-16T05:14:00.008Z,13.55
2023-04-16T05:16:49.873Z,13.87
2023-04-16T05:19:38.493Z,15.40
2023-04-16T05:22:27.137Z,14.27
2023-04-16T05:25:15.622Z,14.45
2023-04-16T05:28:09.324Z,13.03
2023-04-16T05:30:58.289Z,13.68
2023-04-16T05:33:48.343Z,16.00
2023-04-16T05:36:36.893Z,12.73
2023-04-16T05:39:25.614Z,14.93
2023-04-16T05:42:14.096Z,14.57
2023-04-16T05:45:04.577Z,14.05
2023-04-16T05:47:53.142Z,16.30
2023-04-16T05:50:43.285Z,13.80
2023-04-16T05:53:32.012Z,17.77
2023-04-16T05:56:23.390Z,15.20
2023-04-16T05:59:12.305Z,15.10
2023-04-16T06:02:04.142Z,14.77
2023-04-16T06:04:52.902Z,14.75
2023-04-16T06:07:43.170Z,15.52
2023-04-16T06:10:34.839Z,14.45
2023-04-16T06:13:23.837Z,13.57
2023-04-16T06:16:19.834Z,14.73
2023-04-16T06:19:11.908Z,15.47
2023-04-16T06:22:03.347Z,14.15
2023-04-16T06:25:09.480Z,15.03
2023-04-16T06:27:57.992Z,15.80
2023-04-16T06:30:49.136Z,15.02
2023-04-16T06:33:48.187Z,15.50
2023-04-16T06:36:37.709Z,14.57
2023-04-16T06:39:26.910Z,14.10
2023-04-16T06:42:17.169Z,16.27
2023-04-16T06:45:13.526Z,16.20
2023-04-16T06:48:03.797Z,14.40
2023-04-16T06:50:52.558Z,14.50
2023-04-16T06:53:44.718Z,14.97
2023-04-16T06:56:33.664Z,15.13
2023-04-16T06:59:28.413Z,15.00
2023-04-16T07:02:19.745Z,16.10
2023-04-16T07:05:15.398Z,15.63
2023-04-16T07:08:09.434Z,15.53
2023-04-16T07:10:58.421Z,14.83
2023-04-16T07:13:47.490Z,13.57
2023-04-16T07:16:43.245Z,16.30
2023-04-16T07:19:35.158Z,14.20
2023-04-16T07:22:24.085Z,15.40
2023-04-16T07:25:13.289Z,16.63
2023-04-16T07:28:04.825Z,15.93
2023-04-16T07:30:59.497Z,13.93
2023-04-16T07:34:05.174Z,14.13
2023-04-16T07:36:54.052Z,13.57
2023-04-16T07:39:42.604Z,14.07
2023-04-16T07:42:33.706Z,16.92
2023-04-16T07:45:22.242Z,15.37
2023-04-16T07:48:19.846Z,14.35
2023-04-16T07:51:09.696Z,13.32
2023-04-16T07:53:58.177Z,14.15
2023-04-16T07:56:46.625Z,14.55
2023-04-16T07:59:35.235Z,15.98
2023-04-16T08:02:23.965Z,15.68
2023-04-16T08:05:13.196Z,17.77
2023-04-16T08:08:03.290Z,13.70
2023-04-16T08:10:55.587Z,13.80
2023-04-16T08:13:44.100Z,13.70
2023-04-16T08:16:32.685Z,15.73
2023-04-16T08:19:21.264Z,13.73
2023-04-16T08:22:09.839Z,15.43
2023-04-16T08:24:59.754Z,15.98
2023-04-16T08:27:48.267Z,14.93
2023-04-16T08:30:38.725Z,14.70
2023-04-16T08:33:28.821Z,14.27
2023-04-16T08:36:37.205Z,12.98
2023-04-16T08:39:25.954Z,15.20
2023-04-16T08:42:31.630Z,17.25
2023-04-16T08:45:20.200Z,14.68
2023-04-16T08:48:09.031Z,15.23
2023-04-16T08:50:58.335Z,15.38
2023-04-16T08:54:03.742Z,16.33
2023-04-16T08:56:53.232Z,15.63
2023-04-16T08:59:52.661Z,14.93
2023-04-16T09:02:45.146Z,15.55
2023-04-16T09:06:07.697Z,14.73
2023-04-16T09:08:58.287Z,16.67
2023-04-16T09:12:28.889Z,16.55
2023-04-16T09:16:20.197Z,12.85
2023-04-16T09:19:09.169Z,15.93
2023-04-16T09:23:37.070Z,15.18
2023-04-16T09:27:39.471Z,14.13
2023-04-16T09:30:29.574Z,15.60
2023-04-16T09:33:23.375Z,16.08
2023-04-16T09:36:14.738Z,15.15
2023-04-16T09:39:04.837Z,15.52
2023-04-16T09:42:15.440Z,14.48
2023-04-16T09:45:06.228Z,13.75
2023-04-16T09:48:04.976Z,14.80
2023-04-16T09:50:54.878Z,13.82
2023-04-16T09:53:43.479Z,15.15
2023-04-16T09:56:32.546Z,14.25
2023-04-16T09:59:26.329Z,12.13
2023-04-16T10:02:16.431Z,13.73
2023-04-16T10:05:06.404Z,13.57
2023-04-16T10:08:01.994Z,12.20
2023-04-16T10:10:50.870Z,14.88
2023-04-16T10:13:39.449Z,12.93
2023-04-16T10:16:28.597Z,12.90
2023-04-16T10:19:18.103Z,13.38
2023-04-16T10:22:07.016Z,12.18
2023-04-16T10:24:57.322Z,13.15
2023-04-16T10:27:46.514Z,13.25
2023-04-16T10:30:35.663Z,13.63
2023-04-16T10:33:27.192Z,13.50
2023-04-16T10:36:17.949Z,13.10
2023-04-16T10:39:16.889Z,12.73
2023-04-16T10:42:13.075Z,12.48
2023-04-16T10:45:01.691Z,10.95
2023-04-16T10:47:50.321Z,12.07
2023-04-16T10:50:39.695Z,10.25
2023-04-16T10:53:29.038Z,9.85
2023-04-16T10:56:24.914Z,9.50
2023-04-16T10:59:20.512Z,9.90
2023-04-16T11:02:14.881Z,9.10
2023-04-16T11:05:03.956Z,9.57
2023-04-16T11:07:55.156Z,9.90
2023-04-16T11:10:43.956Z,9.32
2023-04-16T11:13:33.764Z,10.40
2023-04-16T11:16:25.682Z,10.02
2023-04-16T11:19:18.707Z,10.88
2023-04-16T11:22:07.707Z,10.68
2023-04-16T11:24:57.896Z,11.57
2023-04-16T11:27:46.693Z,11.38
2023-04-16T11:30:43.171Z,11.00
2023-04-16T11:33:33.392Z,10.77
2023-04-16T11:36:22.905Z,11.73
2023-04-16T11:39:12.644Z,11.25
2023-04-16T11:42:01.435Z,11.23
2023-04-16T11:44:54.939Z,11.32
2023-04-16T11:47:51.782Z,10.57
2023-04-16T11:50:42.275Z,10.85
2023-04-16T11:53:30.967Z,9.95
2023-04-16T11:56:28.719Z,10.75
2023-04-16T11:59:19.700Z,10.52
2023-04-16T12:02:08.486Z,10.20
2023-04-16T12:04:57.444Z,8.80
2023-04-16T12:07:47.723Z,9.98
2023-04-16T12:10:38.773Z,8.77
2023-04-16T12:13:27.536Z,8.50
2023-04-16T12:16:21.848Z,9.57
2023-04-16T12:19:14.366Z,9.32
2023-04-16T12:22:03.135Z,8.90
2023-04-16T12:24:59.430Z,9.27
2023-04-16T12:27:53.411Z,9.82
2023-04-16T12:30:51.821Z,8.98
2023-04-16T12:33:40.517Z,9.25
2023-04-16T12:36:29.133Z,8.77
2023-04-16T12:39:17.827Z,9.23
2023-04-16T12:42:11.267Z,8.80
2023-04-16T12:44:59.743Z,9.07
2023-04-16T12:47:50.463Z,8.75
2023-04-16T12:50:39.772Z,8.60
2023-04-16T12:53:28.337Z,9.65
2023-04-16T12:56:17.148Z,9.07
2023-04-16T12:59:09.714Z,9.70
2023-04-16T13:01:58.487Z,9.45
2023-04-16T13:04:47.293Z,8.40
2023-04-16T13:07:36.499Z,9.15
2023-04-16T13:10:25.360Z,9.13
2023-04-16T13:13:13.899Z,7.90
2023-04-16T13:16:06.644Z,8.32
2023-04-16T13:18:55.379Z,8.65
2023-04-16T13:21:44.189Z,9.13
2023-04-16T13:24:33.169Z,8.70
2023-04-16T13:27:22.162Z,8.95
2023-04-16T13:30:12.308Z,9.60
2023-04-16T13:33:02.580Z,8.85
2023-04-16T13:35:51.974Z,8.98
2023-04-16T13:38:42.297Z,9.43
2023-04-16T13:41:31.784Z,9.88
2023-04-16T13:44:20.706Z,10.00
2023-04-16T13:47:10.005Z,10.20
2023-04-16T13:50:00.220Z,10.07
2023-04-16T13:52:48.954Z,10.00
2023-04-16T13:55:52.965Z,8.98
2023-04-16T13:59:23.424Z,8.55
2023-04-16T14:02:46.330Z,9.23
2023-04-16T14:05:52.220Z,8.52
2023-04-16T14:08:44.030Z,8.02
2023-04-16T14:11:35.801Z,9.05
2023-04-16T14:14:25.983Z,7.82
2023-04-16T14:17:14.845Z,9.20
2023-04-16T14:20:39.567Z,8.75
2023-04-16T14:23:33.339Z,7.82
2023-04-16T14:27:11.190Z,8.68
2023-04-16T14:30:33.078Z,8.48
2023-04-16T14:33:47.502Z,8.10
2023-04-16T14:36:38.426Z,8.77
2023-04-16T14:39:28.583Z,8.27
2023-04-16T14:43:19.402Z,7.47
2023-04-16T14:46:08.246Z,7.22
2023-04-16T14:54:46.849Z,8.40
2023-04-16T14:57:41.529Z,7.65
2023-04-16T15:01:08.686Z,6.82
2023-04-16T15:04:21.616Z,7.43
2023-04-16T15:07:12.319Z,7.70
2023-04-16T15:10:01.056Z,7.43
2023-04-16T15:12:51.208Z,7.28
2023-04-16T15:15:39.965Z,7.40
2023-04-16T15:21:43.345Z,6.78
2023-04-16T15:24:32.336Z,7.55
2023-04-16T15:27:27.817Z,7.20
2023-04-16T15:30:50.349Z,7.32
2023-04-16T15:33:47.585Z,7.07
2023-04-16T15:37:03.794Z,6.82
2023-04-16T15:39:57.657Z,7.25
2023-04-16T15:43:07.010Z,6.55
2023-04-16T15:46:15.589Z,6.95
2023-04-16T15:49:04.554Z,7.22
2023-04-16T15:51:53.402Z,7.20
2023-04-16T15:54:42.199Z,7.53
2023-04-16T15:57:31.344Z,7.68
2023-04-16T16:00:21.842Z,6.47
2023-04-16T16:03:12.265Z,7.75
2023-04-16T16:11:04.200Z,7.05
2023-04-16T16:13:52.711Z,7.25
2023-04-16T16:16:44.738Z,8.00
2023-04-16T16:19:35.409Z,7.53
2023-04-16T16:22:24.536Z,7.80
2023-04-16T16:25:13.244Z,8.15
2023-04-16T16:28:04.243Z,8.43
2023-04-16T16:30:55.697Z,8.07
2023-04-16T16:33:44.390Z,8.23
2023-04-16T16:36:36.641Z,7.47
2023-04-16T16:39:26.288Z,8.80
2023-04-16T16:42:21.753Z,8.65
2023-04-16T16:45:55.601Z,8.27
2023-04-16T16:49:38.630Z,9.23
2023-04-16T16:52:35.523Z,9.05
2023-04-16T16:55:28.249Z,8.43
2023-04-16T16:58:18.278Z,8.52
2023-04-16T17:01:30.032Z,7.93
2023-04-16T17:04:36.611Z,7.97
2023-04-16T17:07:33.437Z,7.93
2023-04-16T17:10:27.914Z,7.53
2023-04-16T17:13:20.476Z,7.68
2023-04-16T17:16:25.804Z,8.05
2023-04-16T17:19:25.036Z,8.38
2023-04-16T17:22:21.831Z,7.57
2023-04-16T17:25:13.707Z,7.40
2023-04-16T17:28:10.536Z,7.38
2023-04-16T17:31:13.452Z,7.47
2023-04-16T17:34:06.806Z,8.30
2023-04-16T17:37:01.744Z,7.97
2023-04-16T17:43:15.124Z,8.07
2023-04-16T17:46:35.453Z,8.30
2023-04-16T17:49:39.932Z,8.02
2023-04-16T17:52:47.930Z,7.75
2023-04-16T17:55:38.774Z,7.93
2023-04-16T17:59:00.330Z,7.97
2023-04-16T18:02:17.334Z,7.40
2023-04-16T18:05:22.134Z,7.85
2023-04-16T18:08:15.467Z,8.35
2023-04-16T18:11:14.550Z,8.65
2023-04-16T18:14:49.660Z,8.77
2023-04-16T18:17:44.808Z,8.38
2023-04-16T18:20:38.048Z,8.05
2023-04-16T18:23:30.229Z,7.25
2023-04-16T18:26:22.256Z,7.90
2023-04-16T18:29:13.637Z,7.90
2023-04-16T18:32:05.529Z,8.20
2023-04-16T18:34:54.925Z,8.32
2023-04-16T18:37:44.518Z,9.32
2023-04-16T18:40:36.912Z,7.40
2023-04-16T18:43:39.118Z,8.02
2023-04-16T18:46:30.100Z,8.07
2023-04-16T18:49:20.509Z,8.93
2023-04-16T18:52:09.913Z,10.02
2023-04-16T18:54:58.915Z,11.30
2023-04-16T18:57:48.848Z,9.50
2023-04-16T19:00:38.167Z,9.50
2023-04-16T19:03:29.659Z,11.07
2023-04-16T19:06:20.425Z,8.88
2023-04-16T19:09:16.492Z,7.78
2023-04-16T19:12:16.933Z,8.20
2023-04-16T19:15:06.795Z,8.65
2023-04-16T19:18:02.061Z,9.32
2023-04-16T19:21:03.000Z,8.25
2023-04-16T19:23:54.265Z,8.23
2023-04-16T19:26:46.423Z,8.05
2023-04-16T19:29:38.933Z,8.32
2023-04-16T19:32:31.052Z,8.52
2023-04-16T19:35:20.606Z,8.73
2023-04-16T19:38:10.926Z,8.43
2023-04-16T19:41:01.495Z,7.95
2023-04-16T19:43:51.227Z,8.98
2023-04-16T19:46:40.249Z,9.00
2023-04-16T19:49:29.262Z,8.48
2023-04-16T19:52:18.218Z,9.32
2023-04-16T19:55:09.215Z,8.38
2023-04-16T19:58:05.557Z,8.20
2023-04-16T20:00:55.370Z,9.02
2023-04-16T20:03:44.295Z,8.25
2023-04-16T20:06:33.322Z,9.10
2023-04-16T20:09:22.077Z,8.75
2023-04-16T20:12:11.191Z,8.00
2023-04-16T20:15:01.464Z,8.68
2023-04-16T20:17:50.494Z,8.05
2023-04-16T20:20:40.465Z,8.13
2023-04-16T20:23:29.388Z,8.35
2023-04-16T20:26:18.621Z,7.95
2023-04-16T20:29:07.503Z,9.25
2023-04-16T20:31:57.645Z,8.15
2023-04-16T20:34:47.163Z,8.38
2023-04-16T20:37:38.056Z,8.63
2023-04-16T20:40:30.135Z,7.50
2023-04-16T20:43:18.995Z,7.88
2023-04-16T20:46:08.073Z,7.75
2023-04-16T20:48:58.690Z,8.55
2023-04-16T20:51:47.420Z,9.13
2023-04-16T20:54:36.184Z,8.88
2023-04-16T20:57:25.863Z,8.77
2023-04-16T21:00:16.736Z,8.88
2023-04-16T21:03:06.918Z,8.45
2023-04-16T21:05:57.245Z,9.05
2023-04-16T21:08:45.874Z,8.85
2023-04-16T21:11:35.957Z,9.27
2023-04-16T21:14:24.748Z,8.98
2023-04-16T21:17:13.465Z,8.27
2023-04-16T21:20:02.209Z,9.57
2023-04-16T21:22:56.762Z,9.65
2023-04-16T21:25:45.519Z,9.23
2023-04-16T21:28:34.314Z,9.43
2023-04-16T21:31:23.182Z,9.52
2023-04-16T21:34:11.968Z,9.10
2023-04-16T21:37:01.053Z,10.18
2023-04-16T21:39:51.478Z,9.00
2023-04-16T21:42:42.465Z,10.10
2023-04-16T21:45:32.127Z,9.20
2023-04-16T21:48:20.971Z,9.90
2023-04-16T21:51:10.186Z,9.27
2023-04-16T21:53:59.177Z,10.05
2023-04-16T21:56:49.390Z,10.02
2023-04-16T21:59:38.342Z,9.95
2023-04-16T22:02:27.590Z,10.50
2023-04-16T22:05:16.671Z,9.45
2023-04-16T22:08:20.901Z,9.23
2023-04-16T22:11:12.601Z,10.80
2023-04-16T22:14:03.124Z,9.75
2023-04-16T22:16:53.575Z,10.20
2023-04-16T22:19:42.806Z,10.55
2023-04-16T22:22:31.575Z,10.82
2023-04-16T22:25:20.425Z,10.85
2023-04-16T22:28:09.072Z,10.00
2023-04-16T22:30:59.480Z,9.55
2023-04-16T22:33:48.156Z,9.27
2023-04-16T22:36:36.855Z,10.05
2023-04-16T22:39:25.633Z,10.27
2023-04-16T22:42:14.471Z,10.07
2023-04-16T22:45:03.452Z,11.15
2023-04-16T22:47:53.953Z,10.27
2023-04-16T22:50:48.584Z,10.45
2023-04-16T22:53:38.216Z,10.50
2023-04-16T22:56:28.990Z,11.43
2023-04-16T22:59:17.909Z,11.25
2023-04-16T23:02:06.719Z,10.27
2023-04-16T23:04:56.964Z,11.60
2023-04-16T23:07:46.004Z,11.40
2023-04-16T23:10:34.910Z,10.25
2023-04-16T23:13:23.682Z,11.00
2023-04-16T23:16:12.447Z,10.85
2023-04-16T23:19:01.280Z,10.00
2023-04-16T23:21:51.812Z,10.10
2023-04-16T23:24:40.692Z,11.07
2023-04-16T23:27:29.434Z,10.40
2023-04-16T23:30:18.551Z,10.90
2023-04-16T23:33:07.450Z,10.60
2023-04-16T23:35:56.416Z,10.82
2023-04-16T23:38:46.648Z,10.73
2023-04-16T23:41:35.698Z,10.43
2023-04-16T23:44:24.462Z,9.82
2023-04-16T23:47:14.014Z,10.30
2023-04-16T23:50:02.979Z,11.15
2023-04-16T23:52:51.635Z,10.88
2023-04-16T23:55:42.063Z,11.40
2023-04-16T23:58:30.979Z,11.45
